createdAt,value
2024-04-18T00:01:07.714Z,0.97
2024-04-18T00:03:34.838Z,1.03
2024-04-18T00:06:01.863Z,1.00
2024-04-18T00:08:28.825Z,1.13
2024-04-18T00:10:59.517Z,0.90
2024-04-18T00:13:26.990Z,0.90
2024-04-18T00:15:54.065Z,0.83
2024-04-18T00:18:21.370Z,0.97
2024-04-18T00:20:48.385Z,0.80
2024-04-18T00:23:15.362Z,1.27
2024-04-18T00:25:42.416Z,0.97
2024-04-18T00:28:09.443Z,0.80
2024-04-18T00:30:36.452Z,1.17
2024-04-18T00:33:03.592Z,1.43
2024-04-18T00:35:30.762Z,1.03
2024-04-18T00:37:57.859Z,0.80
2024-04-18T00:40:25.076Z,1.00
2024-04-18T00:42:52.073Z,0.90
2024-04-18T00:45:20.798Z,1.10
2024-04-18T00:47:49.773Z,0.63
2024-04-18T00:50:17.981Z,1.00
2024-04-18T00:52:46.891Z,0.90
2024-04-18T00:55:14.435Z,0.80
2024-04-18T00:57:41.911Z,0.60
2024-04-18T01:00:11.491Z,0.70
2024-04-18T01:02:39.740Z,0.70
2024-04-18T01:05:07.081Z,0.70
2024-04-18T01:07:34.095Z,0.70
2024-04-18T01:10:01.197Z,0.70
2024-04-18T01:12:28.277Z,0.70
2024-04-18T01:14:55.480Z,0.70
2024-04-18T01:17:22.502Z,0.70
2024-04-18T01:19:49.540Z,0.70
2024-04-18T01:22:17.125Z,0.77
2024-04-18T01:24:44.359Z,0.90
2024-04-18T01:27:11.436Z,0.70
2024-04-18T01:29:38.458Z,0.90
2024-04-18T01:32:05.583Z,0.90
2024-04-18T01:34:32.742Z,0.80
2024-04-18T01:36:59.805Z,1.20
2024-04-18T01:39:26.790Z,0.80
2024-04-18T01:41:53.766Z,0.90
2024-04-18T01:44:21.198Z,0.50
2024-04-18T01:46:48.136Z,0.70
2024-04-18T01:49:15.191Z,0.70
2024-04-18T01:51:42.449Z,0.77
2024-04-18T01:54:09.954Z,0.60
2024-04-18T01:56:37.091Z,0.70
2024-04-18T01:59:05.735Z,0.70
2024-04-18T02:01:32.765Z,0.73
2024-04-18T02:03:59.975Z,0.60
2024-04-18T02:06:27.199Z,0.57
2024-04-18T02:08:54.680Z,0.70
2024-04-18T02:11:21.902Z,0.67
2024-04-18T02:13:48.937Z,0.63
2024-04-18T02:16:16.057Z,0.70
2024-04-18T02:18:43.099Z,0.80
2024-04-18T02:21:10.303Z,0.70
2024-04-18T02:23:37.383Z,0.70
2024-04-18T02:26:04.817Z,0.60
2024-04-18T02:28:32.509Z,0.80
2024-04-18T02:31:04.637Z,0.70
2024-04-18T02:33:33.753Z,0.90
2024-04-18T02:36:00.778Z,0.70
2024-04-18T02:38:29.319Z,0.60
2024-04-18T02:41:06.871Z,0.70
2024-04-18T02:43:33.885Z,0.60
2024-04-18T02:46:00.973Z,1.00
2024-04-18T02:48:28.117Z,0.80
2024-04-18T02:50:55.195Z,0.90
2024-04-18T02:53:22.617Z,1.10
2024-04-18T02:55:49.680Z,1.00
2024-04-18T02:58:16.682Z,1.00
2024-04-18T03:00:43.871Z,0.80
2024-04-18T03:03:10.894Z,0.80
2024-04-18T03:05:37.952Z,1.00
2024-04-18T03:08:05.444Z,1.07
2024-04-18T03:10:32.548Z,0.90
2024-04-18T03:12:59.651Z,0.80
2024-04-18T03:15:26.655Z,1.23
2024-04-18T03:17:55.250Z,1.27
2024-04-18T03:20:22.550Z,1.20
2024-04-18T03:22:49.962Z,1.30
2024-04-18T03:25:17.276Z,1.10
2024-04-18T03:27:44.298Z,1.10
2024-04-18T03:30:11.521Z,1.43
2024-04-18T03:32:38.708Z,1.20
2024-04-18T03:35:06.334Z,1.20
2024-04-18T03:37:34.380Z,1.40
2024-04-18T03:40:02.636Z,1.50
2024-04-18T03:42:29.634Z,1.20
2024-04-18T03:44:58.424Z,1.47
2024-04-18T03:47:25.699Z,1.10
2024-04-18T03:49:53.003Z,1.40
2024-04-18T03:52:19.963Z,1.10
2024-04-18T03:55:00.113Z,1.00
2024-04-18T03:57:28.987Z,0.90
2024-04-18T03:59:56.068Z,1.10
2024-04-18T04:02:23.227Z,1.40
2024-04-18T04:04:51.632Z,1.00
2024-04-18T04:07:18.795Z,1.00
2024-04-18T04:09:46.392Z,1.03
2024-04-18T04:12:13.731Z,1.00
2024-04-18T04:14:40.803Z,1.00
2024-04-18T04:17:11.252Z,1.30
2024-04-18T04:19:38.636Z,1.20
2024-04-18T04:22:06.229Z,1.33
2024-04-18T04:24:34.271Z,1.27
2024-04-18T04:27:01.329Z,1.10
2024-04-18T04:29:28.359Z,0.90
2024-04-18T04:31:55.364Z,1.17
2024-04-18T04:34:22.456Z,1.07
2024-04-18T04:36:49.644Z,1.10
2024-04-18T04:39:16.663Z,1.43
2024-04-18T04:41:43.727Z,1.40
2024-04-18T04:44:10.713Z,1.30
2024-04-18T04:46:37.904Z,1.10
2024-04-18T04:49:04.940Z,1.10
2024-04-18T04:51:32.163Z,1.00
2024-04-18T04:53:59.324Z,1.00
2024-04-18T04:56:26.448Z,1.10
2024-04-18T04:58:53.587Z,1.10
2024-04-18T05:01:20.642Z,0.93
2024-04-18T05:03:47.800Z,0.90
2024-04-18T05:06:14.882Z,1.93
2024-04-18T05:08:41.912Z,1.30
2024-04-18T05:11:09.004Z,1.40
2024-04-18T05:13:35.990Z,1.70
2024-04-18T05:16:03.144Z,1.30
2024-04-18T05:18:30.238Z,1.50
2024-04-18T05:20:57.273Z,1.70
2024-04-18T05:23:24.396Z,1.40
2024-04-18T05:25:51.439Z,1.63
2024-04-18T05:28:22.619Z,1.60
2024-04-18T05:31:03.389Z,1.10
2024-04-18T05:33:34.437Z,1.40
2024-04-18T05:36:01.894Z,1.40
2024-04-18T05:38:28.962Z,1.10
2024-04-18T05:40:56.677Z,1.00
2024-04-18T05:43:24.073Z,1.00
2024-04-18T05:45:51.663Z,0.97
2024-04-18T05:48:19.639Z,0.77
2024-04-18T05:50:46.667Z,0.83
2024-04-18T05:53:13.687Z,0.70
2024-04-18T05:55:41.507Z,0.80
2024-04-18T05:58:08.564Z,0.83
2024-04-18T06:00:36.657Z,0.70
2024-04-18T06:03:04.731Z,0.70
2024-04-18T06:05:31.893Z,0.83
2024-04-18T06:07:58.985Z,0.80
2024-04-18T06:10:26.095Z,0.90
2024-04-18T06:12:53.215Z,0.87
2024-04-18T06:15:20.451Z,0.90
2024-04-18T06:17:47.528Z,0.90
2024-04-18T06:20:14.578Z,0.93
2024-04-18T06:22:41.577Z,0.90
2024-04-18T06:25:09.039Z,0.90
2024-04-18T06:27:36.093Z,0.63
2024-04-18T06:30:03.449Z,0.80
2024-04-18T06:32:30.505Z,0.60
2024-04-18T06:34:57.548Z,0.60
2024-04-18T06:37:27.222Z,0.70
2024-04-18T06:39:54.541Z,0.83
2024-04-18T06:42:21.826Z,1.03
2024-04-18T06:47:15.881Z,0.60
2024-04-18T06:49:42.901Z,0.60
2024-04-18T06:52:09.937Z,0.50
2024-04-18T06:54:37.040Z,0.60
2024-04-18T06:57:04.255Z,0.50
2024-04-18T06:59:31.264Z,0.60
2024-04-18T07:01:58.255Z,0.60
2024-04-18T07:04:25.383Z,0.50
2024-04-18T07:06:52.504Z,0.50
2024-04-18T07:09:19.903Z,0.40
2024-04-18T07:11:47.013Z,0.40
2024-04-18T07:14:14.829Z,0.40
2024-04-18T07:16:41.862Z,0.40
2024-04-18T07:19:08.894Z,0.70
2024-04-18T07:21:36.024Z,0.50
2024-04-18T07:24:03.119Z,0.40
2024-04-18T07:26:30.203Z,0.50
2024-04-18T07:28:57.176Z,0.60
2024-04-18T07:31:24.185Z,0.63
2024-04-18T07:33:51.283Z,1.00
2024-04-18T07:36:22.680Z,0.80
2024-04-18T07:38:50.488Z,0.80
2024-04-18T07:41:18.505Z,0.60
2024-04-18T07:43:45.518Z,0.90
2024-04-18T07:46:14.329Z,0.60
2024-04-18T07:48:41.696Z,0.70
2024-04-18T07:51:08.953Z,0.60
2024-04-18T07:53:35.973Z,0.40
2024-04-18T07:56:05.827Z,0.60
2024-04-18T07:58:33.395Z,0.60
2024-04-18T08:01:02.100Z,0.40
2024-04-18T08:03:31.649Z,0.40
2024-04-18T08:06:02.269Z,0.40
2024-04-18T08:08:34.254Z,0.40
2024-04-18T08:11:25.806Z,0.50
2024-04-18T08:13:54.673Z,0.60
2024-04-18T08:16:24.539Z,0.90
2024-04-18T08:18:51.633Z,0.80
2024-04-18T08:21:18.707Z,0.50
2024-04-18T08:23:52.623Z,0.60
2024-04-18T08:26:19.909Z,0.40
2024-04-18T08:28:46.876Z,0.70
2024-04-18T08:31:13.895Z,0.40
2024-04-18T08:33:46.742Z,0.40
2024-04-18T08:36:17.886Z,0.40
2024-04-18T08:38:44.988Z,0.50
2024-04-18T08:41:14.374Z,0.40
2024-04-18T08:43:43.556Z,0.40
2024-04-18T08:46:12.579Z,0.40
2024-04-18T08:48:40.302Z,0.40
2024-04-18T08:51:09.001Z,0.50
2024-04-18T08:53:36.082Z,0.80
2024-04-18T08:56:06.464Z,0.40
2024-04-18T08:58:33.986Z,0.80
2024-04-18T09:01:01.047Z,0.50
2024-04-18T09:03:29.150Z,0.50
2024-04-18T09:05:56.255Z,0.53
2024-04-18T09:08:23.195Z,0.50
2024-04-18T09:10:52.880Z,0.50
2024-04-18T09:13:21.229Z,0.60
2024-04-18T09:15:49.018Z,0.70
2024-04-18T09:18:16.271Z,0.40
2024-04-18T09:20:44.803Z,0.50
2024-04-18T09:23:11.780Z,0.60
2024-04-18T09:25:40.518Z,0.40
2024-04-18T09:28:08.528Z,0.50
2024-04-18T09:30:38.825Z,1.00
2024-04-18T09:33:07.738Z,0.50
2024-04-18T09:35:37.075Z,0.80
2024-04-18T09:38:10.328Z,0.70
2024-04-18T09:40:42.383Z,0.70
2024-04-18T09:43:27.351Z,0.67
2024-04-18T09:46:04.081Z,0.63
2024-04-18T09:48:32.382Z,0.60
2024-04-18T09:51:01.168Z,0.70
2024-04-18T09:53:33.443Z,0.60
2024-04-18T09:56:02.020Z,0.43
2024-04-18T09:58:29.856Z,0.60
2024-04-18T10:00:57.839Z,0.50
2024-04-18T10:03:29.652Z,0.50
2024-04-18T10:06:02.125Z,0.60
2024-04-18T10:08:33.889Z,0.50
2024-04-18T10:11:01.610Z,0.50
2024-04-18T10:13:29.791Z,0.63
2024-04-18T10:16:12.697Z,0.57
2024-04-18T10:18:40.881Z,0.60
2024-04-18T10:21:37.621Z,0.60
2024-04-18T10:24:11.252Z,0.50
2024-04-18T10:26:39.124Z,0.60
2024-04-18T10:29:21.974Z,0.60
2024-04-18T10:31:49.118Z,0.50
2024-04-18T10:34:16.238Z,0.50
2024-04-18T10:36:45.200Z,0.50
2024-04-18T10:39:30.011Z,0.50
2024-04-18T10:42:02.099Z,0.60
2024-04-18T10:44:29.562Z,0.50
2024-04-18T10:46:56.755Z,0.50
2024-04-18T10:49:24.171Z,0.50
2024-04-18T10:51:51.771Z,0.50
2024-04-18T10:54:18.859Z,0.50
2024-04-18T10:56:46.061Z,0.40
2024-04-18T10:59:13.118Z,0.40
2024-04-18T11:01:40.783Z,0.60
2024-04-18T11:04:08.093Z,0.50
2024-04-18T11:06:38.123Z,0.50
2024-04-18T11:09:05.345Z,0.60
2024-04-18T11:11:34.803Z,0.50
2024-04-18T11:14:02.404Z,0.50
2024-04-18T11:16:29.510Z,0.50
2024-04-18T11:18:57.682Z,0.40
2024-04-18T11:21:28.121Z,0.50
2024-04-18T11:23:58.232Z,0.50
2024-04-18T11:26:29.075Z,0.50
2024-04-18T11:28:58.527Z,0.50
2024-04-18T11:31:25.656Z,0.50
2024-04-18T11:33:53.938Z,0.60
2024-04-18T11:36:21.038Z,0.40
2024-04-18T11:38:48.760Z,0.70
2024-04-18T11:41:15.750Z,0.40
2024-04-18T11:43:43.029Z,0.70
2024-04-18T11:46:10.286Z,0.50
2024-04-18T11:48:39.227Z,0.50
2024-04-18T11:51:06.346Z,0.60
2024-04-18T11:53:33.479Z,0.53
2024-04-18T11:56:03.515Z,0.50
2024-04-18T11:58:32.267Z,0.57
2024-04-18T12:00:59.388Z,0.50
2024-04-18T12:03:29.321Z,0.60
2024-04-18T12:05:56.970Z,0.70
2024-04-18T12:08:24.658Z,0.40
2024-04-18T12:10:51.618Z,0.40
2024-04-18T12:13:18.685Z,0.40
2024-04-18T12:15:45.926Z,0.53
2024-04-18T12:18:12.957Z,0.47
2024-04-18T12:20:43.447Z,0.50
2024-04-18T12:23:10.461Z,0.60
2024-04-18T12:25:37.520Z,0.50
2024-04-18T12:28:04.911Z,0.60
2024-04-18T12:30:32.662Z,1.27
2024-04-18T12:32:59.950Z,0.70
2024-04-18T12:35:27.003Z,0.50
2024-04-18T12:37:54.041Z,0.57
2024-04-18T12:40:21.141Z,0.70
2024-04-18T12:42:48.106Z,0.83
2024-04-18T12:45:15.103Z,0.57
2024-04-18T12:47:42.305Z,0.50
2024-04-18T12:50:09.596Z,0.60
2024-04-18T12:52:36.701Z,0.50
2024-04-18T12:55:03.940Z,0.50
2024-04-18T12:57:30.982Z,0.50
2024-04-18T12:59:58.064Z,0.60
2024-04-18T13:02:25.353Z,0.50
2024-04-18T13:04:52.481Z,0.67
2024-04-18T13:07:20.671Z,0.60
2024-04-18T13:09:47.728Z,0.50
2024-04-18T13:12:14.730Z,0.50
2024-04-18T13:14:41.732Z,0.53
2024-04-18T13:17:08.840Z,0.50
2024-04-18T13:19:35.927Z,0.70
2024-04-18T13:22:02.914Z,0.57
2024-04-18T13:24:29.990Z,0.50
2024-04-18T13:26:57.187Z,0.60
2024-04-18T13:29:26.672Z,0.57
2024-04-18T13:31:53.926Z,0.83
2024-04-18T13:34:21.664Z,0.60
2024-04-18T13:36:49.235Z,0.63
2024-04-18T13:39:16.614Z,0.57
2024-04-18T13:41:47.344Z,0.50
2024-04-18T13:44:14.513Z,0.60
2024-04-18T13:46:42.491Z,0.60
2024-04-18T13:49:09.723Z,0.50
2024-04-18T13:51:36.881Z,0.67
2024-04-18T13:54:04.608Z,0.50
2024-04-18T13:56:31.808Z,0.80
2024-04-18T13:58:59.094Z,0.70
2024-04-18T14:01:26.103Z,0.60
2024-04-18T14:03:53.291Z,0.60
2024-04-18T14:06:20.343Z,0.50
2024-04-18T14:08:47.356Z,0.57
2024-04-18T14:11:14.516Z,0.70
2024-04-18T14:13:41.580Z,0.60
2024-04-18T14:16:37.854Z,0.60
2024-04-18T14:19:05.153Z,0.40
2024-04-18T14:21:32.276Z,0.50
2024-04-18T14:23:59.366Z,0.60
2024-04-18T14:26:26.785Z,0.60
2024-04-18T14:28:54.153Z,0.60
2024-04-18T14:31:21.254Z,0.50
2024-04-18T14:33:49.079Z,0.50
2024-04-18T14:36:16.189Z,0.50
2024-04-18T14:38:43.377Z,0.50
2024-04-18T14:41:12.466Z,0.60
2024-04-18T14:43:39.914Z,0.60
2024-04-18T14:46:07.024Z,0.57
2024-04-18T14:48:35.721Z,0.60
2024-04-18T14:51:02.910Z,0.60
2024-04-18T14:53:29.971Z,0.70
2024-04-18T14:55:57.058Z,0.60
2024-04-18T14:58:24.062Z,0.53
2024-04-18T15:00:53.134Z,0.50
2024-04-18T15:03:21.364Z,0.47
2024-04-18T15:05:57.952Z,0.50
2024-04-18T15:08:25.271Z,0.50
2024-04-18T15:10:53.298Z,0.53
2024-04-18T15:13:20.401Z,0.60
2024-04-18T15:15:47.624Z,0.50
2024-04-18T15:18:15.095Z,0.60
2024-04-18T15:20:42.421Z,1.30
2024-04-18T15:23:10.743Z,0.60
2024-04-18T15:25:38.484Z,0.97
2024-04-18T15:28:06.278Z,0.73
2024-04-18T15:30:33.614Z,0.50
2024-04-18T15:33:03.778Z,0.60
2024-04-18T15:35:30.980Z,0.67
2024-04-18T15:37:58.310Z,0.70
2024-04-18T15:40:25.523Z,0.60
2024-04-18T15:42:52.630Z,0.60
2024-04-18T15:45:19.660Z,0.50
2024-04-18T15:47:46.751Z,0.70
2024-04-18T15:50:13.877Z,0.60
2024-04-18T15:52:40.916Z,0.53
2024-04-18T15:55:15.565Z,0.60
2024-04-18T15:57:47.178Z,0.80
2024-04-18T16:00:14.646Z,0.53
2024-04-18T16:02:41.950Z,0.50
2024-04-18T16:05:09.138Z,0.60
2024-04-18T16:07:36.141Z,0.63
2024-04-18T16:10:04.280Z,0.63
2024-04-18T16:12:31.322Z,0.50
2024-04-18T16:14:58.415Z,0.60
2024-04-18T16:17:25.491Z,0.60
2024-04-18T16:19:52.569Z,0.50
2024-04-18T16:22:19.797Z,0.70
2024-04-18T16:24:49.017Z,0.60
2024-04-18T16:27:16.481Z,0.50
2024-04-18T16:29:43.545Z,0.60
2024-04-18T16:32:10.557Z,0.60
2024-04-18T16:34:37.736Z,0.60
2024-04-18T16:37:12.075Z,0.50
2024-04-18T16:39:41.523Z,0.60
2024-04-18T16:42:08.819Z,0.50
2024-04-18T16:44:36.075Z,0.50
2024-04-18T16:47:03.063Z,0.50
2024-04-18T16:49:30.194Z,0.60
2024-04-18T16:51:57.227Z,0.50
2024-04-18T16:54:24.256Z,0.40
2024-04-18T16:56:51.295Z,0.50
2024-04-18T16:59:19.049Z,0.50
2024-04-18T17:01:46.052Z,0.50
2024-04-18T17:04:13.223Z,0.50
2024-04-18T17:06:47.379Z,0.60
2024-04-18T17:09:17.922Z,0.40
2024-04-18T17:11:45.406Z,0.50
2024-04-18T17:14:12.487Z,0.60
2024-04-18T17:16:39.987Z,0.50
2024-04-18T17:19:07.038Z,0.50
2024-04-18T17:21:36.396Z,0.60
2024-04-18T17:24:03.943Z,0.70
2024-04-18T17:26:31.248Z,0.60
2024-04-18T17:28:58.394Z,0.53
2024-04-18T17:31:25.658Z,1.57
2024-04-18T17:33:52.979Z,0.53
2024-04-18T17:36:20.023Z,0.53
2024-04-18T17:38:50.869Z,0.70
2024-04-18T17:41:18.099Z,0.57
2024-04-18T17:43:47.248Z,0.60
2024-04-18T17:46:14.386Z,0.50
2024-04-18T17:48:42.047Z,0.70
2024-04-18T17:51:09.525Z,0.70
2024-04-18T17:53:36.638Z,0.60
2024-04-18T17:56:04.055Z,0.67
2024-04-18T17:58:31.133Z,0.70
2024-04-18T18:00:58.274Z,0.70
2024-04-18T18:03:25.351Z,1.00
2024-04-18T18:05:52.446Z,0.63
2024-04-18T18:08:19.912Z,0.70
2024-04-18T18:10:47.128Z,1.13
2024-04-18T18:13:14.360Z,0.80
2024-04-18T18:15:41.603Z,0.87
2024-04-18T18:18:09.018Z,0.70
2024-04-18T18:20:36.561Z,0.70
2024-04-18T18:23:03.644Z,0.70
2024-04-18T18:25:31.106Z,0.70
2024-04-18T18:27:58.114Z,0.83
2024-04-18T18:30:25.976Z,0.70
2024-04-18T18:32:53.232Z,0.77
2024-04-18T18:35:20.320Z,0.83
2024-04-18T18:37:49.530Z,0.60
2024-04-18T18:40:17.123Z,0.67
2024-04-18T18:42:45.626Z,0.70
2024-04-18T18:45:12.921Z,0.77
2024-04-18T18:47:40.157Z,0.80
2024-04-18T18:50:07.998Z,0.60
2024-04-18T18:52:35.211Z,0.70
2024-04-18T18:55:02.396Z,0.77
2024-04-18T18:57:30.264Z,0.63
2024-04-18T18:59:57.359Z,0.80
2024-04-18T19:02:25.197Z,0.90
2024-04-18T19:04:52.391Z,0.70
2024-04-18T19:07:19.456Z,0.50
2024-04-18T19:09:46.782Z,0.60
2024-04-18T19:12:14.393Z,0.70
2024-04-18T19:14:41.481Z,0.60
2024-04-18T19:17:08.571Z,0.60
2024-04-18T19:19:35.664Z,0.50
2024-04-18T19:22:04.456Z,0.50
2024-04-18T19:24:31.813Z,0.60
2024-04-18T19:27:01.970Z,0.50
2024-04-18T19:29:39.872Z,0.50
2024-04-18T19:32:14.776Z,0.60
2024-04-18T19:34:42.112Z,0.50
2024-04-18T19:37:09.347Z,0.67
2024-04-18T19:39:36.968Z,0.60
2024-04-18T19:42:04.427Z,0.60
2024-04-18T19:44:32.004Z,0.53
2024-04-18T19:46:59.240Z,0.63
2024-04-18T19:49:26.302Z,0.73
2024-04-18T19:51:53.435Z,0.50
2024-04-18T19:54:20.494Z,0.60
2024-04-18T19:56:47.621Z,0.70
2024-04-18T19:59:14.681Z,0.50
2024-04-18T20:01:41.952Z,0.70
2024-04-18T20:04:09.110Z,0.70
2024-04-18T20:06:36.933Z,0.70
2024-04-18T20:09:04.146Z,0.70
2024-04-18T20:11:31.470Z,0.67
2024-04-18T20:13:58.675Z,0.63
2024-04-18T20:16:26.048Z,0.80
2024-04-18T20:18:53.383Z,0.67
2024-04-18T20:21:20.825Z,0.70
2024-04-18T20:23:47.954Z,0.80
2024-04-18T20:26:14.976Z,0.80
2024-04-18T20:28:41.993Z,0.73
2024-04-18T20:31:09.066Z,0.60
2024-04-18T20:33:36.047Z,1.73
2024-04-18T20:36:03.509Z,0.70
2024-04-18T20:38:30.848Z,0.80
2024-04-18T20:40:59.265Z,0.70
2024-04-18T20:43:26.399Z,1.00
2024-04-18T20:45:55.815Z,0.70
2024-04-18T20:48:23.010Z,0.70
2024-04-18T20:50:50.068Z,0.70
2024-04-18T20:53:17.026Z,0.70
2024-04-18T20:55:44.000Z,0.70
2024-04-18T20:58:10.966Z,0.80
2024-04-18T21:00:38.075Z,0.70
2024-04-18T21:03:05.407Z,0.97
2024-04-18T21:05:32.450Z,0.70
2024-04-18T21:07:59.469Z,0.70
2024-04-18T21:10:26.548Z,0.87
2024-04-18T21:12:53.594Z,0.80
2024-04-18T21:15:20.760Z,0.80
2024-04-18T21:17:47.826Z,0.80
2024-04-18T21:20:14.846Z,0.90
2024-04-18T21:22:42.106Z,0.60
2024-04-18T21:25:09.148Z,0.60
2024-04-18T21:27:36.436Z,0.70
2024-04-18T21:30:03.667Z,0.77
2024-04-18T21:32:30.685Z,0.70
2024-04-18T21:34:57.871Z,0.80
2024-04-18T21:37:24.877Z,0.80
2024-04-18T21:39:53.199Z,0.60
2024-04-18T21:42:20.182Z,0.80
2024-04-18T21:44:49.139Z,1.23
2024-04-18T21:47:16.218Z,0.90
2024-04-18T21:49:43.421Z,0.53
2024-04-18T21:52:11.400Z,0.70
2024-04-18T21:54:38.446Z,0.83
2024-04-18T21:57:07.140Z,0.70
2024-04-18T21:59:36.693Z,0.60
2024-04-18T22:02:03.954Z,0.80
2024-04-18T22:04:31.140Z,0.63
2024-04-18T22:06:58.163Z,0.77
2024-04-18T22:09:25.179Z,0.80
2024-04-18T22:11:52.290Z,0.70
2024-04-18T22:14:19.303Z,0.90
2024-04-18T22:16:46.304Z,0.70
2024-04-18T22:19:13.464Z,0.70
2024-04-18T22:21:41.069Z,0.70
2024-04-18T22:24:08.679Z,0.70
2024-04-18T22:26:37.088Z,0.73
2024-04-18T22:29:04.462Z,0.60
2024-04-18T22:31:31.542Z,0.70
2024-04-18T22:33:58.813Z,0.67
2024-04-18T22:36:27.051Z,0.70
2024-04-18T22:38:54.404Z,0.90
2024-04-18T22:41:21.640Z,0.80
2024-04-18T22:43:48.612Z,0.57
2024-04-18T22:46:15.723Z,0.63
2024-04-18T22:48:43.082Z,0.60
2024-04-18T22:51:10.213Z,0.70
2024-04-18T22:53:37.482Z,0.80
2024-04-18T22:56:04.812Z,0.70
2024-04-18T22:58:31.824Z,0.80
2024-04-18T23:00:58.872Z,0.70
2024-04-18T23:03:26.022Z,0.70
2024-04-18T23:05:53.303Z,0.90
2024-04-18T23:08:20.457Z,0.70
2024-04-18T23:10:48.631Z,0.83
2024-04-18T23:13:15.810Z,0.60
2024-04-18T23:15:42.925Z,0.60
2024-04-18T23:18:10.055Z,0.60
2024-04-18T23:20:37.118Z,0.70
2024-04-18T23:23:04.399Z,0.70
2024-04-18T23:25:31.935Z,0.67
2024-04-18T23:27:58.960Z,0.60
2024-04-18T23:30:25.976Z,0.60
2024-04-18T23:32:53.040Z,0.60
2024-04-18T23:35:20.082Z,0.67
2024-04-18T23:37:47.027Z,0.63
2024-04-18T23:40:14.101Z,0.70
2024-04-18T23:42:41.483Z,0.60
2024-04-18T23:45:08.720Z,0.70
2024-04-18T23:47:35.782Z,0.70
2024-04-18T23:50:03.426Z,0.70
2024-04-18T23:52:30.435Z,0.60
2024-04-18T23:54:57.528Z,0.70
2024-04-18T23:57:25.820Z,0.70
2024-04-18T23:59:52.926Z,0.60
